createdAt,value
2023-01-15T00:02:18.463Z,98778.69
2023-01-15T00:04:46.326Z,98771.59
2023-01-15T00:07:14.037Z,98775.34
2023-01-15T00:09:41.849Z,98761.97
2023-01-15T00:12:09.599Z,98763.88
2023-01-15T00:14:37.339Z,98764.69
2023-01-15T00:17:05.106Z,98760.53
2023-01-15T00:19:32.936Z,98759.47
2023-01-15T00:22:09.619Z,98755.91
2023-01-15T00:25:06.503Z,98761.59
2023-01-15T00:27:40.141Z,98754.69
2023-01-15T00:30:08.069Z,98742.97
2023-01-15T00:32:35.810Z,98739.19
2023-01-15T00:35:03.608Z,98719.50
2023-01-15T00:37:31.359Z,98721.41
2023-01-15T00:39:59.137Z,98724.13
2023-01-15T00:42:26.970Z,98713.22
2023-01-15T00:44:55.695Z,98716.78
2023-01-15T00:47:23.519Z,98709.06
2023-01-15T00:49:51.731Z,98709.88
2023-01-15T00:52:19.608Z,98698.75
2023-01-15T00:54:48.331Z,98691.03
2023-01-15T00:57:16.141Z,98674.44
2023-01-15T00:59:43.878Z,98671.72
2023-01-15T01:02:11.775Z,98682.63
2023-01-15T01:04:39.556Z,98674.44
2023-01-15T01:07:07.300Z,98684.53
2023-01-15T01:09:35.174Z,98680.13
2023-01-15T01:12:02.874Z,98673.84
2023-01-15T01:14:30.655Z,98675.75
2023-01-15T01:16:58.342Z,98683.09
2023-01-15T01:19:26.129Z,98671.94
2023-01-15T01:21:53.940Z,98676.56
2023-01-15T01:24:21.661Z,98671.38
2023-01-15T01:26:49.398Z,98669.69
2023-01-15T01:29:17.199Z,98672.41
2023-01-15T01:31:45.093Z,98672.66
2023-01-15T01:34:12.874Z,98678.94
2023-01-15T01:36:40.749Z,98682.72
2023-01-15T01:39:08.617Z,98678.34
2023-01-15T01:41:36.379Z,98669.56
2023-01-15T01:44:04.117Z,98659.72
2023-01-15T01:46:31.900Z,98667.91
2023-01-15T01:48:59.632Z,98652.59
2023-01-15T01:51:27.395Z,98652.59
2023-01-15T01:53:55.183Z,98645.50
2023-01-15T01:56:23.344Z,98640.88
2023-01-15T01:58:51.067Z,98640.88
2023-01-15T02:39:10.882Z,98577.09
2023-01-15T02:41:38.613Z,98581.47
2023-01-15T02:44:06.341Z,98580.66
2023-01-15T02:46:34.130Z,98572.25
2023-01-15T02:49:01.889Z,98582.31
2023-01-15T02:51:29.601Z,98578.75
2023-01-15T02:53:58.696Z,98582.53
2023-01-15T02:56:26.441Z,98582.31
2023-01-15T02:58:54.272Z,98586.91
2023-01-15T03:01:22.175Z,98586.91
2023-01-15T03:03:49.996Z,98586.09
2023-01-15T03:06:17.749Z,98577.09
2023-01-15T03:08:45.533Z,98576.03
2023-01-15T03:11:13.282Z,98572.47
2023-01-15T03:13:41.035Z,98574.97
2023-01-15T03:16:26.217Z,98563.47
2023-01-15T03:18:54.059Z,98562.66
2023-01-15T03:21:21.832Z,98555.50
2023-01-15T03:23:49.588Z,98556.59
2023-01-15T03:26:17.407Z,98555.78
2023-01-15T03:28:45.152Z,98554.69
2023-01-15T03:31:13.018Z,98549.25
2023-01-15T03:33:40.861Z,98548.41
2023-01-15T03:36:08.600Z,98549.25
2023-01-15T03:38:36.859Z,98554.13
2023-01-15T03:41:04.600Z,98551.41
2023-01-15T03:43:44.568Z,98546.78
2023-01-15T03:46:12.331Z,98547.81
2023-01-15T03:48:40.160Z,98542.38
2023-01-15T03:51:07.952Z,98539.91
2023-01-15T03:53:35.663Z,98535.47
2023-01-15T03:56:03.421Z,98537.16
2023-01-15T03:58:31.182Z,98538.22
2023-01-15T04:00:59.877Z,98530.03
2023-01-15T04:03:27.752Z,98525.19
2023-01-15T04:05:55.493Z,98531.47
2023-01-15T04:08:23.257Z,98532.53
2023-01-15T04:10:50.992Z,98529.81
2023-01-15T04:13:18.886Z,98531.72
2023-01-15T04:15:46.814Z,98594.38
2023-01-15T04:18:14.591Z,98600.88
2023-01-15T04:20:42.324Z,98592.47
2023-01-15T04:23:10.064Z,98596.03
2023-01-15T04:25:38.094Z,98592.47
2023-01-15T04:28:06.029Z,98597.09
2023-01-15T04:30:33.826Z,98604.22
2023-01-15T04:33:01.596Z,98600.44
2023-01-15T04:35:29.339Z,98604.81
2023-01-15T04:37:57.096Z,98610.00
2023-01-15T04:40:42.487Z,98607.53
2023-01-15T04:43:27.612Z,98610.47
2023-01-15T04:45:55.402Z,98656.59
2023-01-15T04:48:23.155Z,98670.22
2023-01-15T04:50:51.041Z,98675.41
2023-01-15T04:53:18.799Z,98669.75
2023-01-15T04:55:46.548Z,98674.13
2023-01-15T04:58:14.290Z,98667.03
2023-01-15T05:00:42.031Z,98667.84
2023-01-15T05:03:09.777Z,98661.34
2023-01-15T05:05:37.939Z,98662.41
2023-01-15T05:08:05.647Z,98678.75
2023-01-15T05:10:33.950Z,98701.84
2023-01-15T05:13:02.131Z,98707.28
2023-01-15T05:15:30.028Z,98722.59
2023-01-15T05:17:57.786Z,98731.34
2023-01-15T05:20:25.834Z,98740.59
2023-01-15T05:22:53.541Z,98731.59
2023-01-15T05:25:21.240Z,98734.53
2023-01-15T05:27:48.922Z,98727.44
2023-01-15T05:30:16.694Z,98731.22
2023-01-15T05:32:44.909Z,98735.00
2023-01-15T05:35:12.697Z,98740.69
2023-01-15T05:37:40.422Z,98746.97
2023-01-15T05:40:08.209Z,98737.97
2023-01-15T05:42:35.962Z,98743.63
2023-01-15T05:45:03.813Z,98747.19
2023-01-15T05:47:31.569Z,98747.19
2023-01-15T05:49:59.334Z,98749.59
2023-01-15T05:52:27.082Z,98756.13
2023-01-15T05:54:54.830Z,98767.75
2023-01-15T05:57:22.597Z,98772.72
2023-01-15T05:59:50.586Z,98773.94
2023-01-15T06:02:18.391Z,98777.50
2023-01-15T06:04:46.273Z,98769.44
2023-01-15T06:07:14.038Z,98788.66
2023-01-15T06:09:41.840Z,98787.63
2023-01-15T06:12:09.764Z,98793.91
2023-01-15T06:14:37.553Z,98798.75
2023-01-15T06:17:05.274Z,98792.75
2023-01-15T06:19:33.441Z,98793.00
2023-01-15T06:22:01.164Z,98789.91
2023-01-15T06:24:29.285Z,98805.69
2023-01-15T06:26:56.986Z,98819.56
2023-01-15T06:29:24.866Z,98816.91
2023-01-15T06:31:52.591Z,98820.88
2023-01-15T06:34:20.516Z,98820.44
2023-01-15T06:36:48.324Z,98827.69
2023-01-15T06:39:16.519Z,98818.31
2023-01-15T06:42:01.602Z,98821.16
2023-01-15T06:44:46.702Z,98818.03
2023-01-15T06:47:24.625Z,98815.28
2023-01-15T06:49:52.705Z,98823.72
2023-01-15T06:52:20.448Z,98832.22
2023-01-15T06:54:48.167Z,98841.38
2023-01-15T06:57:15.901Z,98838.75
2023-01-15T06:59:43.631Z,98837.16
2023-01-15T07:02:11.532Z,98834.16
2023-01-15T07:04:39.288Z,98830.69
2023-01-15T07:07:19.097Z,98826.25
2023-01-15T07:09:46.863Z,98829.88
2023-01-15T07:12:14.724Z,98845.91
2023-01-15T07:14:42.484Z,98855.53
2023-01-15T07:17:10.558Z,98846.72
2023-01-15T07:19:38.340Z,98838.25
2023-01-15T07:22:06.188Z,98833.78
2023-01-15T07:24:34.001Z,98849.88
2023-01-15T07:27:01.785Z,98872.75
2023-01-15T07:29:30.873Z,98880.94
2023-01-15T07:31:59.466Z,98868.91
2023-01-15T07:34:27.299Z,98858.22
2023-01-15T07:36:55.034Z,98881.66
2023-01-15T07:39:22.824Z,98870.91
2023-01-15T07:42:07.937Z,98866.75
2023-01-15T07:44:53.388Z,98872.16
2023-01-15T07:47:38.483Z,98863.53
2023-01-15T07:50:06.272Z,98859.88
2023-01-15T07:52:34.009Z,98866.13
2023-01-15T07:55:02.138Z,98872.41
2023-01-15T07:57:29.913Z,98868.88
2023-01-15T07:59:57.646Z,98868.00
2023-01-15T08:02:25.657Z,98875.44
2023-01-15T08:04:53.465Z,98875.69
2023-01-15T08:07:21.216Z,98876.41
2023-01-15T08:09:48.938Z,98867.38
2023-01-15T08:12:34.401Z,98864.25
2023-01-15T08:15:14.157Z,98868.97
2023-01-15T08:17:41.915Z,98862.16
2023-01-15T08:20:09.756Z,98851.38
2023-01-15T08:22:38.598Z,98856.84
2023-01-15T08:25:06.345Z,98871.38
2023-01-15T08:27:34.299Z,98884.53
2023-01-15T08:30:02.229Z,98885.88
2023-01-15T08:32:30.026Z,98891.25
2023-01-15T08:34:57.871Z,98896.28
2023-01-15T08:37:25.582Z,98896.31
2023-01-15T08:39:53.676Z,98905.75
2023-01-15T08:42:21.401Z,98902.31
2023-01-15T08:44:49.186Z,98903.19
2023-01-15T08:47:16.947Z,98916.75
2023-01-15T08:49:44.712Z,98908.59
2023-01-15T08:52:15.178Z,98890.91
2023-01-15T08:54:43.423Z,98900.88
2023-01-15T08:57:12.611Z,98896.94
2023-01-15T08:59:43.060Z,98898.13
2023-01-15T09:02:10.896Z,98887.00
2023-01-15T09:04:38.700Z,98887.91
2023-01-15T09:07:06.505Z,98893.03
2023-01-15T09:09:36.995Z,98905.22
2023-01-15T09:12:04.725Z,98900.06
2023-01-15T09:14:58.127Z,98900.91
2023-01-15T09:17:20.263Z,98901.63
2023-01-15T09:19:47.964Z,98908.06
2023-01-15T09:22:15.882Z,98912.28
2023-01-15T09:24:43.627Z,98923.84
2023-01-15T09:27:13.440Z,98927.09
2023-01-15T09:29:41.164Z,98920.16
2023-01-15T09:32:10.473Z,98945.41
2023-01-15T09:34:38.232Z,98942.81
2023-01-15T09:37:08.249Z,98932.94
2023-01-15T09:39:38.126Z,98930.63
2023-01-15T09:42:09.385Z,98936.38
2023-01-15T09:44:37.293Z,98931.66
2023-01-15T09:47:08.071Z,98943.41
2023-01-15T09:49:36.213Z,98945.53
2023-01-15T09:52:06.375Z,98953.47
2023-01-15T09:54:34.149Z,98942.22
2023-01-15T09:57:02.054Z,98946.06
2023-01-15T09:59:34.158Z,98952.91
2023-01-15T10:02:02.567Z,98942.53
2023-01-15T10:04:30.367Z,98942.91
2023-01-15T10:06:58.723Z,98935.06
2023-01-15T10:09:26.900Z,98934.34
2023-01-15T10:12:12.325Z,98931.25
2023-01-15T10:14:40.433Z,98940.06
2023-01-15T10:17:08.147Z,98941.59
2023-01-15T10:19:44.313Z,98948.28
2023-01-15T10:22:12.443Z,98953.31
2023-01-15T10:24:40.212Z,98955.81
2023-01-15T10:27:07.992Z,98962.47
2023-01-15T10:29:35.705Z,98961.28
2023-01-15T10:32:03.441Z,98970.09
2023-01-15T10:34:33.227Z,98970.91
2023-01-15T10:37:00.920Z,98966.84
2023-01-15T10:39:28.764Z,98966.13
2023-01-15T10:41:56.543Z,98975.50
2023-01-15T10:44:24.318Z,98963.00
2023-01-15T10:46:54.395Z,98965.59
2023-01-15T10:49:22.631Z,98972.00
2023-01-15T10:51:52.695Z,98967.47
2023-01-15T10:54:20.420Z,98962.94
2023-01-15T10:56:48.152Z,98960.91
2023-01-15T10:59:15.947Z,98957.81
2023-01-15T11:01:43.876Z,98950.09
2023-01-15T11:04:13.345Z,98958.75
2023-01-15T11:06:41.104Z,98952.31
2023-01-15T11:09:12.400Z,98950.88
2023-01-15T11:12:15.717Z,98962.53
2023-01-15T11:15:00.716Z,98968.63
2023-01-15T11:17:45.785Z,98976.44
2023-01-15T11:20:13.564Z,98965.16
2023-01-15T11:22:42.698Z,98968.97
2023-01-15T11:25:11.456Z,98954.69
2023-01-15T11:27:39.245Z,98966.09
2023-01-15T11:30:06.951Z,98980.78
2023-01-15T11:32:34.740Z,98961.09
2023-01-15T11:35:02.485Z,98973.31
2023-01-15T11:37:30.315Z,98978.97
2023-01-15T11:40:03.060Z,98985.72
2023-01-15T11:42:48.468Z,98984.28
2023-01-15T11:45:30.042Z,98990.22
2023-01-15T11:48:15.184Z,98989.59
2023-01-15T11:50:45.702Z,98994.44
2023-01-15T11:53:14.853Z,98989.25
2023-01-15T11:55:42.551Z,98984.81
2023-01-15T11:58:10.401Z,98977.94
2023-01-15T12:00:38.156Z,98968.91
2023-01-15T12:03:05.914Z,98972.72
2023-01-15T12:05:33.700Z,98966.66
2023-01-15T12:08:02.315Z,98968.56
2023-01-15T12:10:49.959Z,98969.00
2023-01-15T12:13:17.784Z,98971.97
2023-01-15T12:15:45.567Z,98979.53
2023-01-15T12:18:13.551Z,98968.63
2023-01-15T12:20:43.996Z,98962.34
2023-01-15T12:23:11.707Z,98959.00
2023-01-15T12:25:39.570Z,98956.25
2023-01-15T12:28:08.864Z,98960.28
2023-01-15T12:30:37.800Z,98951.28
2023-01-15T12:33:05.772Z,98955.75
2023-01-15T12:35:33.548Z,98933.53
2023-01-15T12:38:01.287Z,98928.94
2023-01-15T12:40:29.015Z,98947.41
2023-01-15T12:43:14.462Z,98934.00
2023-01-15T12:45:42.477Z,98929.72
2023-01-15T12:48:10.194Z,98948.84
2023-01-15T12:50:37.960Z,98954.56
2023-01-15T12:53:05.709Z,98943.25
2023-01-15T12:55:33.749Z,98953.41
2023-01-15T12:58:01.501Z,98980.00
2023-01-15T13:00:29.253Z,98974.00
2023-01-15T13:02:57.005Z,98960.22
2023-01-15T13:05:24.759Z,98939.03
2023-01-15T13:07:52.521Z,98944.25
2023-01-15T13:10:20.218Z,98945.94
2023-01-15T13:12:47.950Z,98948.94
2023-01-15T13:15:15.685Z,98959.09
2023-01-15T13:17:44.646Z,98973.59
2023-01-15T13:20:12.391Z,98975.31
2023-01-15T13:22:40.157Z,98975.88
2023-01-15T13:25:07.965Z,98972.06
2023-01-15T13:27:35.692Z,98980.09
2023-01-15T13:30:03.711Z,98978.84
2023-01-15T13:32:31.454Z,98977.09
2023-01-15T13:34:59.221Z,98984.84
2023-01-15T13:37:27.026Z,98996.00
2023-01-15T13:39:54.774Z,99000.09
2023-01-15T13:42:39.213Z,99001.78
2023-01-15T13:45:07.014Z,99004.31
2023-01-15T13:47:34.863Z,98997.78
2023-01-15T13:50:03.584Z,99006.00
2023-01-15T13:52:31.353Z,99001.94
2023-01-15T13:54:59.572Z,98998.84
2023-01-15T13:57:27.321Z,99021.91
2023-01-15T13:59:55.037Z,99019.19
2023-01-15T14:02:22.875Z,99009.56
2023-01-15T14:04:50.623Z,99028.56
2023-01-15T14:07:18.381Z,99023.28
2023-01-15T14:09:46.124Z,99027.59
2023-01-15T14:12:13.993Z,99048.13
2023-01-15T14:14:41.733Z,99036.47
2023-01-15T14:17:09.474Z,99050.66
2023-01-15T14:19:37.227Z,99062.91
2023-01-15T14:22:05.163Z,99065.28
2023-01-15T14:24:32.912Z,99074.00
2023-01-15T14:27:00.716Z,99063.25
2023-01-15T14:29:30.551Z,99069.47
2023-01-15T14:31:58.317Z,99075.91
2023-01-15T14:34:27.141Z,99068.84
2023-01-15T14:36:56.345Z,99067.94
2023-01-15T14:39:24.094Z,99052.56
2023-01-15T14:42:05.730Z,99062.06
2023-01-15T14:44:33.599Z,99073.38
2023-01-15T14:47:01.322Z,99084.47
2023-01-15T14:49:29.294Z,99078.59
2023-01-15T14:51:57.192Z,99096.44
2023-01-15T14:54:25.107Z,99091.38
2023-01-15T14:56:52.817Z,99088.22
2023-01-15T14:59:20.525Z,99092.41
2023-01-15T15:01:48.772Z,99086.75
2023-01-15T15:04:16.552Z,99106.91
2023-01-15T15:06:44.352Z,99096.66
2023-01-15T15:09:13.656Z,99095.59
2023-01-15T15:11:59.051Z,99082.00
2023-01-15T15:14:26.843Z,99082.81
2023-01-15T15:16:54.871Z,99084.34
2023-01-15T15:19:25.223Z,99086.06
2023-01-15T15:21:52.992Z,99086.28
2023-01-15T15:24:20.740Z,99082.66
2023-01-15T15:26:48.470Z,99091.06
2023-01-15T15:29:16.225Z,99080.97
2023-01-15T15:31:43.979Z,99092.09
2023-01-15T15:34:11.687Z,99094.41
2023-01-15T15:36:39.807Z,99085.41
2023-01-15T15:39:07.554Z,99091.34
2023-01-15T15:41:52.909Z,99078.25
2023-01-15T15:44:38.056Z,99086.22
2023-01-15T15:47:23.158Z,99070.16
2023-01-15T15:49:50.956Z,99064.22
2023-01-15T15:52:18.723Z,99071.53
2023-01-15T15:54:46.570Z,99053.66
2023-01-15T15:57:14.318Z,99053.25
2023-01-15T15:59:42.126Z,99064.66
2023-01-15T16:02:10.063Z,99060.69
2023-01-15T16:04:37.888Z,99062.03
2023-01-15T16:07:05.596Z,99063.44
2023-01-15T16:09:33.416Z,99057.44
2023-01-15T16:12:07.347Z,99058.53
2023-01-15T16:14:35.229Z,99073.81
2023-01-15T16:17:03.146Z,99073.81
2023-01-15T16:19:31.035Z,99076.81
2023-01-15T16:21:58.930Z,99093.34
2023-01-15T16:24:26.762Z,99099.13
2023-01-15T16:26:54.535Z,99100.00
2023-01-15T16:29:23.333Z,99122.00
2023-01-15T16:31:51.074Z,99131.69
2023-01-15T16:34:18.930Z,99123.78
2023-01-15T16:36:47.156Z,99122.94
2023-01-15T16:39:14.935Z,99116.03
2023-01-15T16:41:43.341Z,99116.38
2023-01-15T16:44:11.132Z,99095.56
2023-01-15T16:46:39.022Z,99102.44
2023-01-15T16:49:07.393Z,99101.13
2023-01-15T16:51:35.240Z,99105.97
2023-01-15T16:54:03.677Z,99106.56
2023-01-15T16:56:31.424Z,99114.97
2023-01-15T16:58:59.172Z,99118.81
2023-01-15T17:01:27.006Z,99128.72
2023-01-15T17:03:54.787Z,99130.41
2023-01-15T17:06:22.542Z,99124.91
2023-01-15T17:08:50.245Z,99137.81
2023-01-15T17:11:17.982Z,99143.88
2023-01-15T17:13:45.849Z,99152.81
2023-01-15T17:16:13.681Z,99146.97
2023-01-15T17:18:41.667Z,99143.50
2023-01-15T17:21:09.502Z,99147.56
2023-01-15T17:23:37.329Z,99149.47
2023-01-15T17:26:05.048Z,99128.41
2023-01-15T17:28:32.791Z,99136.50
2023-01-15T17:31:00.571Z,99132.22
2023-01-15T17:33:28.394Z,99127.56
2023-01-15T17:35:58.392Z,99124.44
2023-01-15T17:38:26.094Z,99135.25
2023-01-15T17:40:57.604Z,99137.50
2023-01-15T17:43:26.462Z,99131.38
2023-01-15T17:45:54.237Z,99138.38
2023-01-15T17:48:21.964Z,99137.19
2023-01-15T17:50:49.734Z,99143.38
2023-01-15T17:53:17.977Z,99136.63
2023-01-15T17:56:03.464Z,99151.28
2023-01-15T17:58:48.626Z,99153.31
2023-01-15T18:01:34.055Z,99150.63
2023-01-15T18:04:19.389Z,99143.81
2023-01-15T18:06:47.185Z,99151.91
2023-01-15T18:09:14.918Z,99145.28
2023-01-15T18:11:42.858Z,99147.31
2023-01-15T18:14:10.610Z,99151.63
2023-01-15T18:16:39.102Z,99139.88
2023-01-15T18:19:06.843Z,99149.41
2023-01-15T18:21:34.589Z,99137.03
2023-01-15T18:24:02.665Z,99146.06
2023-01-15T18:26:30.390Z,99144.13
2023-01-15T18:28:58.121Z,99141.75
2023-01-15T18:31:25.956Z,99155.28
2023-01-15T18:33:53.690Z,99157.19
2023-01-15T18:36:21.589Z,99144.72
2023-01-15T18:38:49.357Z,99145.78
2023-01-15T18:41:49.731Z,99147.94
2023-01-15T18:44:35.040Z,99144.00
2023-01-15T18:47:02.862Z,99145.19
2023-01-15T18:49:30.618Z,99138.13
2023-01-15T18:52:16.049Z,99148.34
2023-01-15T18:54:43.831Z,99139.66
2023-01-15T18:57:11.701Z,99139.53
2023-01-15T18:59:39.494Z,99140.31
2023-01-15T19:02:09.776Z,99150.28
2023-01-15T19:04:38.308Z,99143.69
2023-01-15T19:07:06.110Z,99149.25
2023-01-15T19:09:34.198Z,99147.16
2023-01-15T19:12:03.992Z,99150.03
2023-01-15T19:14:49.379Z,99144.22
2023-01-15T19:17:34.535Z,99152.13
2023-01-15T19:20:02.281Z,99149.03
2023-01-15T19:22:47.630Z,99142.81
2023-01-15T19:25:15.357Z,99147.06
2023-01-15T19:27:43.217Z,99145.41
2023-01-15T19:30:10.943Z,99144.63
2023-01-15T19:32:38.660Z,99139.72
2023-01-15T19:35:06.417Z,99137.25
2023-01-15T19:37:37.221Z,99125.66
2023-01-15T19:40:05.206Z,99126.38
2023-01-15T19:42:50.596Z,99119.75
2023-01-15T19:45:36.080Z,99131.75
2023-01-15T19:48:21.087Z,99122.28
2023-01-15T19:50:48.827Z,99113.28
2023-01-15T19:53:16.685Z,99125.19
2023-01-15T19:55:44.573Z,99132.03
2023-01-15T19:58:12.294Z,99132.81
2023-01-15T20:00:40.229Z,99125.00
2023-01-15T20:03:09.911Z,99131.50
2023-01-15T20:05:37.751Z,99125.59
2023-01-15T20:08:05.675Z,99129.84
2023-01-15T20:10:34.396Z,99124.19
2023-01-15T20:13:19.546Z,99125.44
2023-01-15T20:15:47.288Z,99114.28
2023-01-15T20:18:15.177Z,99114.97
2023-01-15T20:20:42.928Z,99111.81
2023-01-15T20:23:10.667Z,99112.84
2023-01-15T20:25:42.705Z,99105.63
2023-01-15T20:28:10.506Z,99115.44
2023-01-15T20:30:38.395Z,99115.34
2023-01-15T20:33:06.120Z,99122.16
2023-01-15T20:35:33.944Z,99109.75
2023-01-15T20:38:01.720Z,99111.41
2023-01-15T20:40:32.564Z,99118.19
2023-01-15T20:43:17.849Z,99111.44
2023-01-15T20:45:46.041Z,99104.03
2023-01-15T20:48:31.105Z,99104.28
2023-01-15T20:51:01.741Z,99099.16
2023-01-15T20:53:29.743Z,99091.56
2023-01-15T20:55:57.891Z,99097.38
2023-01-15T20:58:25.871Z,99104.03
2023-01-15T21:00:53.820Z,99102.69
2023-01-15T21:03:21.593Z,99096.97
2023-01-15T21:05:49.387Z,99098.75
2023-01-15T21:08:17.091Z,99102.66
2023-01-15T21:10:44.856Z,99105.75
2023-01-15T21:13:13.036Z,99103.34
2023-01-15T21:15:42.390Z,99107.88
2023-01-15T21:18:11.727Z,99103.09
2023-01-15T21:20:39.473Z,99098.50
2023-01-15T21:23:07.347Z,99098.00
2023-01-15T21:25:35.075Z,99096.69
2023-01-15T21:28:02.877Z,99094.03
2023-01-15T21:30:30.770Z,99097.44
2023-01-15T21:32:58.475Z,99101.13
2023-01-15T21:35:26.185Z,99098.47
2023-01-15T21:37:53.923Z,99094.53
2023-01-15T21:40:21.703Z,99098.78
2023-01-15T21:43:07.308Z,99106.38
2023-01-15T21:45:35.084Z,99108.94
2023-01-15T21:48:02.971Z,99105.84
2023-01-15T21:50:30.850Z,99101.69
2023-01-15T21:52:58.572Z,99101.53
2023-01-15T21:55:26.375Z,99099.88
2023-01-15T21:57:54.126Z,99100.91
2023-01-15T22:00:21.972Z,99095.88
2023-01-15T22:02:50.201Z,99103.47
2023-01-15T22:05:17.989Z,99095.72
2023-01-15T22:07:45.746Z,99100.81
2023-01-15T22:10:13.476Z,99104.59
2023-01-15T22:12:43.178Z,99116.84
2023-01-15T22:15:10.979Z,99102.56
2023-01-15T22:17:38.768Z,99100.31
2023-01-15T22:20:07.325Z,99098.88
2023-01-15T22:22:36.792Z,99110.00
2023-01-15T22:25:07.599Z,99108.56
2023-01-15T22:27:40.687Z,99114.22
2023-01-15T22:30:08.475Z,99109.84
2023-01-15T22:32:36.275Z,99118.03
2023-01-15T22:35:04.194Z,99110.28
2023-01-15T22:37:31.970Z,99111.78
2023-01-15T22:39:59.832Z,99113.69
2023-01-15T22:42:28.510Z,99106.56
2023-01-15T22:44:57.225Z,99099.44
2023-01-15T22:49:52.945Z,99099.88
2023-01-15T22:52:21.266Z,99100.72
2023-01-15T22:54:49.002Z,99091.94
2023-01-15T22:57:17.301Z,99096.53
2023-01-15T22:59:45.341Z,99091.09
2023-01-15T23:02:13.277Z,99083.16
2023-01-15T23:04:41.085Z,99089.88
2023-01-15T23:07:08.858Z,99081.09
2023-01-15T23:09:36.600Z,99084.88
2023-01-15T23:12:04.349Z,99086.16
2023-01-15T23:14:32.128Z,99087.22
2023-01-15T23:17:00.014Z,99087.22
2023-01-15T23:19:28.276Z,99082.00
2023-01-15T23:21:56.353Z,99091.47
2023-01-15T23:24:24.143Z,99085.41
2023-01-15T23:26:52.113Z,99083.72
2023-01-15T23:29:19.995Z,99087.97
2023-01-15T23:31:47.908Z,99087.13
2023-01-15T23:34:15.665Z,99077.50
2023-01-15T23:36:43.418Z,99081.28
2023-01-15T23:39:11.107Z,99076.88
2023-01-15T23:41:56.161Z,99076.28
2023-01-15T23:44:41.344Z,99071.06
2023-01-15T23:47:09.097Z,99072.09
2023-01-15T23:49:36.815Z,99071.28
2023-01-15T23:52:04.610Z,99065.00
2023-01-15T23:54:32.339Z,99057.63
2023-01-15T23:57:00.227Z,99049.44
2023-01-15T23:59:27.927Z,99047.78
